createdAt,value
2019-05-25T00:00:21.855Z,1006.52
2019-05-25T00:01:21.839Z,1006.62
2019-05-25T00:02:21.826Z,1006.52
2019-05-25T00:03:21.817Z,1006.48
2019-05-25T00:04:21.820Z,1006.48
2019-05-25T00:05:21.821Z,1006.48
2019-05-25T00:06:21.756Z,1006.54
2019-05-25T00:07:21.873Z,1006.57
2019-05-25T00:08:21.741Z,1006.61
2019-05-25T00:09:21.737Z,1006.64
2019-05-25T00:10:21.713Z,1006.58
2019-05-25T00:11:21.713Z,1006.63
2019-05-25T00:12:21.691Z,1006.67
2019-05-25T00:13:21.689Z,1006.61
2019-05-25T00:14:21.686Z,1006.61
2019-05-25T00:15:21.673Z,1006.66
2019-05-25T00:16:21.667Z,1006.66
2019-05-25T00:17:21.699Z,1006.60
2019-05-25T00:18:21.624Z,1006.63
2019-05-25T00:19:21.612Z,1006.63
2019-05-25T00:20:21.611Z,1006.62
2019-05-25T00:21:21.587Z,1006.64
2019-05-25T00:22:21.587Z,1006.61
2019-05-25T00:23:21.582Z,1006.60
2019-05-25T00:24:21.640Z,1006.61
2019-05-25T00:25:21.564Z,1006.62
2019-05-25T00:26:21.615Z,1006.67
2019-05-25T00:27:21.571Z,1006.65
2019-05-25T00:28:21.528Z,1006.65
2019-05-25T00:29:21.500Z,1006.69
2019-05-25T00:30:21.490Z,1006.66
2019-05-25T00:31:21.487Z,1006.70
2019-05-25T00:32:21.472Z,1006.72
2019-05-25T00:33:21.462Z,1006.68
2019-05-25T00:34:21.454Z,1006.76
2019-05-25T00:35:21.475Z,1006.69
2019-05-25T00:36:21.417Z,1006.75
2019-05-25T00:37:21.411Z,1006.74
2019-05-25T00:38:21.437Z,1006.80
2019-05-25T00:39:21.410Z,1006.77
2019-05-25T00:40:21.384Z,1006.81
2019-05-25T00:41:21.377Z,1006.77
2019-05-25T00:42:21.375Z,1006.78
2019-05-25T00:43:21.358Z,1006.77
2019-05-25T00:44:21.359Z,1006.82
2019-05-25T00:45:21.326Z,1006.90
2019-05-25T00:46:21.313Z,1006.85
2019-05-25T00:47:21.358Z,1006.90
2019-05-25T00:48:21.317Z,1006.91
2019-05-25T00:49:21.307Z,1006.93
2019-05-25T00:50:21.313Z,1006.87
2019-05-25T00:51:21.278Z,1006.91
2019-05-25T00:52:21.272Z,1006.88
2019-05-25T00:53:21.250Z,1006.87
2019-05-25T00:54:28.080Z,1006.86
2019-05-25T00:55:22.225Z,1006.83
2019-05-25T00:56:21.212Z,1006.80
2019-05-25T00:57:21.234Z,1006.82
2019-05-25T00:58:21.200Z,1006.84
2019-05-25T00:59:21.194Z,1006.86
2019-05-25T01:00:21.177Z,1006.89
2019-05-25T01:01:24.383Z,1006.84
2019-05-25T01:02:21.155Z,1006.83
2019-05-25T01:03:21.155Z,1006.86
2019-05-25T01:04:21.167Z,1006.88
2019-05-25T01:05:21.106Z,1006.84
2019-05-25T01:06:21.095Z,1006.79
2019-05-25T01:07:21.081Z,1006.92
2019-05-25T01:08:21.071Z,1006.84
2019-05-25T01:09:21.076Z,1006.86
2019-05-25T01:10:21.059Z,1006.87
2019-05-25T01:11:21.048Z,1006.89
2019-05-25T01:12:21.050Z,1006.89
2019-05-25T01:13:21.043Z,1006.86
2019-05-25T01:14:21.008Z,1006.92
2019-05-25T01:15:21.042Z,1006.91
2019-05-25T01:16:21.010Z,1006.91
2019-05-25T01:17:20.988Z,1006.84
2019-05-25T01:18:20.978Z,1006.92
2019-05-25T01:19:20.960Z,1006.91
2019-05-25T01:20:20.960Z,1006.96
2019-05-25T01:21:20.931Z,1006.89
2019-05-25T01:22:20.932Z,1006.94
2019-05-25T01:23:20.908Z,1006.91
2019-05-25T01:24:20.899Z,1006.87
2019-05-25T01:25:20.952Z,1006.93
2019-05-25T01:26:20.881Z,1006.91
2019-05-25T01:27:20.864Z,1006.88
2019-05-25T01:28:20.852Z,1006.91
2019-05-25T01:29:20.840Z,1006.85
2019-05-25T01:30:20.828Z,1006.88
2019-05-25T01:31:20.853Z,1006.84
2019-05-25T01:32:20.852Z,1006.87
2019-05-25T01:33:20.806Z,1006.88
2019-05-25T01:34:20.790Z,1006.93
2019-05-25T01:35:20.782Z,1006.88
2019-05-25T01:36:20.766Z,1006.95
2019-05-25T01:37:20.750Z,1006.91
2019-05-25T01:38:20.744Z,1006.89
2019-05-25T01:39:20.740Z,1006.93
2019-05-25T01:40:20.726Z,1006.96
2019-05-25T01:41:20.712Z,1006.94
2019-05-25T01:42:20.700Z,1006.90
2019-05-25T01:43:20.682Z,1006.90
2019-05-25T01:44:20.678Z,1006.89
2019-05-25T01:45:20.668Z,1006.89
2019-05-25T01:46:20.678Z,1006.97
2019-05-25T01:47:20.648Z,1006.96
2019-05-25T01:48:20.639Z,1006.94
2019-05-25T01:49:20.630Z,1006.97
2019-05-25T01:50:20.618Z,1007.02
2019-05-25T01:51:20.602Z,1007.06
2019-05-25T01:52:20.592Z,1007.01
2019-05-25T01:53:20.620Z,1007.07
2019-05-25T01:54:20.564Z,1007.04
2019-05-25T01:55:20.570Z,1007.11
2019-05-25T01:56:20.668Z,1007.09
2019-05-25T01:57:20.588Z,1007.06
2019-05-25T01:58:20.531Z,1007.11
2019-05-25T01:59:20.532Z,1007.06
2019-05-25T02:00:20.506Z,1007.12
2019-05-25T02:01:20.490Z,1007.09
2019-05-25T02:02:20.476Z,1007.06
2019-05-25T02:03:20.462Z,1007.13
2019-05-25T02:04:20.460Z,1007.05
2019-05-25T02:05:20.440Z,1007.12
2019-05-25T02:06:20.424Z,1007.11
2019-05-25T02:07:20.427Z,1007.16
2019-05-25T02:08:20.414Z,1007.13
2019-05-25T02:09:20.406Z,1007.18
2019-05-25T02:10:20.383Z,1007.16
2019-05-25T02:11:20.370Z,1007.20
2019-05-25T02:12:20.358Z,1007.14
2019-05-25T02:13:20.350Z,1007.19
2019-05-25T02:14:29.052Z,1007.15
2019-05-25T02:16:02.499Z,1007.22
2019-05-25T02:17:02.460Z,1007.20
2019-05-25T02:18:02.444Z,1007.22
2019-05-25T02:19:02.437Z,1007.22
2019-05-25T02:20:02.432Z,1007.18
2019-05-25T02:21:02.651Z,1007.20
2019-05-25T02:22:02.403Z,1007.19
2019-05-25T02:23:02.394Z,1007.24
2019-05-25T02:24:02.380Z,1007.25
2019-05-25T02:25:16.424Z,1007.22
2019-05-25T02:26:03.362Z,1007.18
2019-05-25T02:27:02.356Z,1007.23
2019-05-25T02:28:02.340Z,1007.21
2019-05-25T02:29:02.321Z,1007.20
2019-05-25T02:30:02.437Z,1007.27
2019-05-25T02:31:02.322Z,1007.24
2019-05-25T02:32:02.300Z,1007.27
2019-05-25T02:33:02.296Z,1007.25
2019-05-25T02:34:02.276Z,1007.24
2019-05-25T02:35:02.280Z,1007.22
2019-05-25T02:36:02.258Z,1007.20
2019-05-25T02:37:02.244Z,1007.21
2019-05-25T02:38:02.241Z,1007.17
2019-05-25T02:39:02.222Z,1007.25
2019-05-25T02:40:02.239Z,1007.27
2019-05-25T02:41:02.200Z,1007.24
2019-05-25T02:42:02.209Z,1007.22
2019-05-25T02:43:02.182Z,1007.16
2019-05-25T02:44:02.171Z,1007.27
2019-05-25T02:45:02.161Z,1007.26
2019-05-25T02:46:02.146Z,1007.30
2019-05-25T02:47:02.133Z,1007.30
2019-05-25T02:48:02.130Z,1007.36
2019-05-25T02:49:02.116Z,1007.29
2019-05-25T02:50:02.216Z,1007.25
2019-05-25T02:51:02.118Z,1007.30
2019-05-25T02:52:02.078Z,1007.32
2019-05-25T02:53:02.061Z,1007.24
2019-05-25T02:54:02.056Z,1007.31
2019-05-25T02:55:02.046Z,1007.31
2019-05-25T02:56:02.027Z,1007.36
2019-05-25T02:57:02.018Z,1007.35
2019-05-25T02:58:02.014Z,1007.32
2019-05-25T02:59:01.994Z,1007.33
2019-05-25T03:00:02.021Z,1007.35
2019-05-25T03:01:01.979Z,1007.36
2019-05-25T03:02:01.962Z,1007.36
2019-05-25T03:03:01.978Z,1007.33
2019-05-25T03:04:01.938Z,1007.36
2019-05-25T03:05:01.932Z,1007.38
2019-05-25T03:06:01.976Z,1007.37
2019-05-25T03:07:01.918Z,1007.35
2019-05-25T03:08:01.905Z,1007.43
2019-05-25T03:09:01.880Z,1007.36
2019-05-25T03:10:01.879Z,1007.42
2019-05-25T03:11:01.870Z,1007.45
2019-05-25T03:12:01.860Z,1007.43
2019-05-25T03:13:01.849Z,1007.46
2019-05-25T03:14:01.834Z,1007.42
2019-05-25T03:15:01.869Z,1007.49
2019-05-25T03:16:01.806Z,1007.46
2019-05-25T03:17:01.795Z,1007.46
2019-05-25T03:18:01.831Z,1007.36
2019-05-25T03:19:01.765Z,1007.45
2019-05-25T03:20:01.864Z,1007.40
2019-05-25T03:21:01.747Z,1007.36
2019-05-25T03:22:01.737Z,1007.48
2019-05-25T03:23:01.744Z,1007.41
2019-05-25T03:24:01.753Z,1007.49
2019-05-25T03:25:01.785Z,1007.51
2019-05-25T03:26:01.692Z,1007.57
2019-05-25T03:27:01.677Z,1007.55
2019-05-25T03:28:01.659Z,1007.54
2019-05-25T03:29:01.655Z,1007.54
2019-05-25T03:30:01.751Z,1007.50
2019-05-25T03:31:01.653Z,1007.52
2019-05-25T03:32:01.624Z,1007.57
2019-05-25T03:33:01.633Z,1007.58
2019-05-25T03:34:01.671Z,1007.59
2019-05-25T03:35:01.637Z,1007.53
2019-05-25T03:36:01.605Z,1007.54
2019-05-25T03:37:01.587Z,1007.56
2019-05-25T03:38:01.560Z,1007.56
2019-05-25T03:39:01.555Z,1007.53
2019-05-25T03:40:01.550Z,1007.61
2019-05-25T03:41:01.521Z,1007.60
2019-05-25T03:42:01.513Z,1007.60
2019-05-25T03:43:01.507Z,1007.60
2019-05-25T03:44:01.489Z,1007.57
2019-05-25T03:45:01.518Z,1007.70
2019-05-25T03:46:01.482Z,1007.67
2019-05-25T03:47:01.473Z,1007.62
2019-05-25T03:48:01.485Z,1007.66
2019-05-25T03:49:01.432Z,1007.65
2019-05-25T03:50:01.423Z,1007.63
2019-05-25T03:51:01.416Z,1007.63
2019-05-25T03:52:01.399Z,1007.69
2019-05-25T03:53:01.396Z,1007.70
2019-05-25T03:54:01.394Z,1007.66
2019-05-25T03:55:01.377Z,1007.67
2019-05-25T03:56:05.725Z,1007.66
2019-05-25T03:57:02.342Z,1007.64
2019-05-25T03:58:01.341Z,1007.68
2019-05-25T03:59:01.336Z,1007.67
2019-05-25T04:00:01.348Z,1007.68
2019-05-25T04:01:01.317Z,1007.62
2019-05-25T04:02:01.293Z,1007.63
2019-05-25T04:03:01.291Z,1007.62
2019-05-25T04:04:01.283Z,1007.66
2019-05-25T04:05:01.293Z,1007.60
2019-05-25T04:06:01.259Z,1007.68
2019-05-25T04:07:01.259Z,1007.66
2019-05-25T04:08:01.317Z,1007.60
2019-05-25T04:09:01.219Z,1007.64
2019-05-25T04:10:01.556Z,1007.65
2019-05-25T04:11:01.203Z,1007.65
2019-05-25T04:12:01.181Z,1007.65
2019-05-25T04:13:01.169Z,1007.62
2019-05-25T04:14:01.167Z,1007.59
2019-05-25T04:15:01.156Z,1007.58
2019-05-25T04:16:01.131Z,1007.67
2019-05-25T04:17:01.152Z,1007.65
2019-05-25T04:18:01.113Z,1007.67
2019-05-25T04:19:01.347Z,1007.64
2019-05-25T04:20:01.099Z,1007.64
2019-05-25T04:21:01.075Z,1007.59
2019-05-25T04:22:01.073Z,1007.62
2019-05-25T04:23:01.063Z,1007.62
2019-05-25T04:24:01.055Z,1007.66
2019-05-25T04:25:01.045Z,1007.63
2019-05-25T04:26:01.031Z,1007.72
2019-05-25T04:27:01.011Z,1007.64
2019-05-25T04:28:01.014Z,1007.65
2019-05-25T04:29:00.998Z,1007.65
2019-05-25T04:30:00.990Z,1007.68
2019-05-25T04:31:00.974Z,1007.62
2019-05-25T04:32:00.977Z,1007.72
2019-05-25T04:33:00.950Z,1007.74
2019-05-25T04:34:00.949Z,1007.74
2019-05-25T04:35:00.929Z,1007.77
2019-05-25T04:36:00.920Z,1007.79
2019-05-25T04:37:00.917Z,1007.79
2019-05-25T04:38:00.893Z,1007.85
2019-05-25T04:39:00.888Z,1007.78
2019-05-25T04:40:00.874Z,1007.83
2019-05-25T04:41:00.872Z,1007.80
2019-05-25T04:42:00.853Z,1007.87
2019-05-25T04:43:00.859Z,1007.84
2019-05-25T04:44:00.828Z,1007.89
2019-05-25T04:45:00.820Z,1007.91
2019-05-25T04:46:00.797Z,1007.92
2019-05-25T04:47:00.785Z,1007.92
2019-05-25T04:48:00.779Z,1007.93
2019-05-25T04:49:00.787Z,1007.91
2019-05-25T04:50:00.754Z,1007.91
2019-05-25T04:51:00.751Z,1007.95
2019-05-25T04:52:00.745Z,1007.92
2019-05-25T04:53:00.729Z,1007.99
2019-05-25T04:54:00.722Z,1007.94
2019-05-25T04:55:00.716Z,1007.97
2019-05-25T04:56:00.689Z,1007.98
2019-05-25T04:57:00.686Z,1008.02
2019-05-25T04:58:00.669Z,1008.02
2019-05-25T04:59:00.664Z,1007.99
2019-05-25T05:00:00.655Z,1007.99
2019-05-25T05:01:00.632Z,1007.99
2019-05-25T05:02:00.640Z,1008.04
2019-05-25T05:03:00.618Z,1008.05
2019-05-25T05:04:00.608Z,1008.06
2019-05-25T05:05:00.597Z,1008.08
2019-05-25T05:06:00.588Z,1008.08
2019-05-25T05:07:00.571Z,1008.14
2019-05-25T05:08:00.561Z,1008.16
2019-05-25T05:09:00.545Z,1008.15
2019-05-25T05:10:03.085Z,1008.07
2019-05-25T05:11:00.536Z,1008.14
2019-05-25T05:12:00.520Z,1008.17
2019-05-25T05:13:00.510Z,1008.17
2019-05-25T05:14:00.492Z,1008.11
2019-05-25T05:15:00.542Z,1008.12
2019-05-25T05:16:00.472Z,1008.11
2019-05-25T05:17:00.468Z,1008.10
2019-05-25T05:18:00.495Z,1008.14
2019-05-25T05:19:00.441Z,1008.15
2019-05-25T05:20:00.425Z,1008.13
2019-05-25T05:21:00.414Z,1008.14
2019-05-25T05:22:00.435Z,1008.16
2019-05-25T05:23:00.399Z,1008.18
2019-05-25T05:24:00.378Z,1008.20
2019-05-25T05:25:00.377Z,1008.22
2019-05-25T05:26:00.357Z,1008.17
2019-05-25T05:27:00.351Z,1008.21
2019-05-25T05:28:00.338Z,1008.26
2019-05-25T05:29:00.340Z,1008.17
2019-05-25T05:30:00.318Z,1008.28
2019-05-25T05:31:00.302Z,1008.19
2019-05-25T05:32:00.295Z,1008.19
2019-05-25T05:33:00.290Z,1008.27
2019-05-25T05:34:00.274Z,1008.21
2019-05-25T05:35:00.263Z,1008.21
2019-05-25T05:36:00.250Z,1008.20
2019-05-25T05:37:00.232Z,1008.29
2019-05-25T05:38:00.225Z,1008.21
2019-05-25T05:39:00.249Z,1008.20
2019-05-25T05:40:00.206Z,1008.20
2019-05-25T05:41:00.196Z,1008.17
2019-05-25T05:42:00.203Z,1008.15
2019-05-25T05:43:00.214Z,1008.15
2019-05-25T05:44:00.158Z,1008.19
2019-05-25T05:45:00.210Z,1008.15
2019-05-25T05:46:00.147Z,1008.19
2019-05-25T05:47:00.224Z,1008.20
2019-05-25T05:48:00.122Z,1008.19
2019-05-25T05:49:00.178Z,1008.18
2019-05-25T05:50:00.113Z,1008.22
2019-05-25T05:51:00.125Z,1008.18
2019-05-25T05:52:00.074Z,1008.22
2019-05-25T05:53:00.072Z,1008.25
2019-05-25T05:54:00.048Z,1008.24
2019-05-25T05:55:00.039Z,1008.25
2019-05-25T05:56:00.030Z,1008.26
2019-05-25T05:57:11.670Z,1008.25
2019-05-25T05:58:01.009Z,1008.24
2019-05-25T05:59:00.004Z,1008.27
2019-05-25T05:59:59.982Z,1008.34
2019-05-25T06:00:59.975Z,1008.36
2019-05-25T06:01:59.974Z,1008.28
2019-05-25T06:02:59.964Z,1008.35
2019-05-25T06:03:59.935Z,1008.35
2019-05-25T06:04:59.924Z,1008.36
2019-05-25T06:05:59.912Z,1008.36
2019-05-25T06:06:59.907Z,1008.42
2019-05-25T06:07:59.900Z,1008.35
2019-05-25T06:08:59.912Z,1008.44
2019-05-25T06:09:59.876Z,1008.36
2019-05-25T06:10:59.858Z,1008.36
2019-05-25T06:11:59.851Z,1008.37
2019-05-25T06:12:59.849Z,1008.34
2019-05-25T06:13:59.830Z,1008.24
2019-05-25T06:14:59.815Z,1008.37
2019-05-25T06:15:59.808Z,1008.42
2019-05-25T06:16:59.821Z,1008.43
2019-05-25T06:17:59.805Z,1008.44
2019-05-25T06:18:59.776Z,1008.50
2019-05-25T06:19:59.776Z,1008.42
2019-05-25T06:20:59.744Z,1008.45
2019-05-25T06:21:59.756Z,1008.54
2019-05-25T06:22:59.719Z,1008.47
2019-05-25T06:23:59.726Z,1008.51
2019-05-25T06:24:59.704Z,1008.51
2019-05-25T06:25:59.759Z,1008.53
2019-05-25T06:26:59.690Z,1008.47
2019-05-25T06:27:59.673Z,1008.57
2019-05-25T06:28:59.669Z,1008.55
2019-05-25T06:29:59.669Z,1008.54
2019-05-25T06:30:59.637Z,1008.60
2019-05-25T06:31:59.645Z,1008.56
2019-05-25T06:32:59.619Z,1008.62
2019-05-25T06:33:59.638Z,1008.67
2019-05-25T06:34:59.604Z,1008.61
2019-05-25T06:35:59.584Z,1008.65
2019-05-25T06:36:59.588Z,1008.68
2019-05-25T06:37:59.583Z,1008.65
2019-05-25T06:38:59.552Z,1008.67
2019-05-25T06:39:59.532Z,1008.72
2019-05-25T06:40:59.574Z,1008.73
2019-05-25T06:41:59.592Z,1008.71
2019-05-25T06:42:59.514Z,1008.72
2019-05-25T06:43:59.644Z,1008.75
2019-05-25T06:44:59.476Z,1008.78
2019-05-25T06:45:59.492Z,1008.74
2019-05-25T06:46:59.479Z,1008.74
2019-05-25T06:47:59.446Z,1008.81
2019-05-25T06:48:59.469Z,1008.83
2019-05-25T06:49:59.430Z,1008.81
2019-05-25T06:50:59.430Z,1008.81
2019-05-25T06:51:59.454Z,1008.83
2019-05-25T06:52:59.401Z,1008.87
2019-05-25T06:53:59.374Z,1008.85
2019-05-25T06:54:59.489Z,1008.86
2019-05-25T06:55:59.352Z,1008.82
2019-05-25T06:56:59.349Z,1008.88
2019-05-25T06:57:59.330Z,1008.85
2019-05-25T06:58:59.338Z,1008.82
2019-05-25T06:59:59.310Z,1008.81
2019-05-25T07:00:59.311Z,1008.91
2019-05-25T07:01:59.296Z,1008.90
2019-05-25T07:02:59.278Z,1008.88
2019-05-25T07:03:59.266Z,1008.96
2019-05-25T07:04:59.246Z,1008.97
2019-05-25T07:05:59.322Z,1008.99
2019-05-25T07:06:59.241Z,1009.09
2019-05-25T07:07:59.220Z,1009.00
2019-05-25T07:08:59.220Z,1009.02
2019-05-25T07:09:59.196Z,1009.01
2019-05-25T07:10:59.193Z,1008.99
2019-05-25T07:11:59.182Z,1008.96
2019-05-25T07:12:59.174Z,1008.98
2019-05-25T07:13:59.189Z,1009.00
2019-05-25T07:14:59.143Z,1008.93
2019-05-25T07:15:59.132Z,1009.03
2019-05-25T07:16:59.124Z,1009.02
2019-05-25T07:17:59.110Z,1009.07
2019-05-25T07:18:59.098Z,1009.03
2019-05-25T07:19:59.086Z,1009.00
2019-05-25T07:20:59.123Z,1008.98
2019-05-25T07:21:59.063Z,1009.01
2019-05-25T07:22:59.092Z,1008.97
2019-05-25T07:23:59.045Z,1009.01
2019-05-25T07:24:59.042Z,1008.96
2019-05-25T07:25:59.032Z,1009.01
2019-05-25T07:26:59.030Z,1008.95
2019-05-25T07:28:00.451Z,1009.02
2019-05-25T07:28:58.988Z,1009.02
2019-05-25T07:29:58.985Z,1009.03
2019-05-25T07:30:58.968Z,1009.00
2019-05-25T07:31:58.964Z,1009.04
2019-05-25T07:32:58.949Z,1009.00
2019-05-25T07:33:58.928Z,1009.04
2019-05-25T07:34:58.926Z,1009.05
2019-05-25T07:35:58.912Z,1009.06
2019-05-25T07:36:58.901Z,1009.04
2019-05-25T07:37:58.890Z,1009.11
2019-05-25T07:38:58.872Z,1009.01
2019-05-25T07:39:58.863Z,1009.04
2019-05-25T07:40:58.847Z,1009.05
2019-05-25T07:41:58.850Z,1009.11
2019-05-25T07:42:58.850Z,1009.09
2019-05-25T07:43:58.817Z,1009.10
2019-05-25T07:44:58.809Z,1009.12
2019-05-25T07:45:58.810Z,1009.12
2019-05-25T07:46:58.824Z,1009.04
2019-05-25T07:47:58.799Z,1009.09
2019-05-25T07:48:58.762Z,1009.09
2019-05-25T07:49:58.749Z,1009.07
2019-05-25T07:50:58.730Z,1009.16
2019-05-25T07:51:58.731Z,1009.11
2019-05-25T07:52:58.741Z,1009.11
2019-05-25T07:53:58.701Z,1009.14
2019-05-25T07:54:58.707Z,1009.16
2019-05-25T07:55:58.687Z,1009.17
2019-05-25T07:56:58.677Z,1009.13
2019-05-25T07:58:13.589Z,1009.16
2019-05-25T07:58:59.647Z,1009.13
2019-05-25T07:59:58.632Z,1009.19
2019-05-25T08:00:58.720Z,1009.18
2019-05-25T08:01:58.611Z,1009.20
2019-05-25T08:02:58.609Z,1009.19
2019-05-25T08:03:58.615Z,1009.23
2019-05-25T08:04:58.581Z,1009.23
2019-05-25T08:05:58.569Z,1009.20
2019-05-25T08:06:58.558Z,1009.19
2019-05-25T08:07:58.564Z,1009.21
2019-05-25T08:08:58.545Z,1009.25
2019-05-25T08:09:58.543Z,1009.25
2019-05-25T08:10:58.505Z,1009.32
2019-05-25T08:11:58.509Z,1009.32
2019-05-25T08:12:58.529Z,1009.30
2019-05-25T08:13:58.481Z,1009.33
2019-05-25T08:14:58.500Z,1009.23
2019-05-25T08:15:58.461Z,1009.28
2019-05-25T08:16:58.443Z,1009.34
2019-05-25T08:17:58.437Z,1009.30
2019-05-25T08:18:58.419Z,1009.29
2019-05-25T08:19:58.421Z,1009.31
2019-05-25T08:20:58.410Z,1009.29
2019-05-25T08:21:58.385Z,1009.26
2019-05-25T08:22:58.383Z,1009.33
2019-05-25T08:23:58.372Z,1009.28
2019-05-25T08:24:58.429Z,1009.28
2019-05-25T08:25:58.349Z,1009.33
2019-05-25T08:26:58.417Z,1009.36
2019-05-25T08:27:58.319Z,1009.34
2019-05-25T08:28:58.315Z,1009.32
2019-05-25T08:29:58.295Z,1009.36
2019-05-25T08:31:01.322Z,1009.32
2019-05-25T08:31:58.283Z,1009.35
2019-05-25T08:32:58.262Z,1009.36
2019-05-25T08:33:58.251Z,1009.33
2019-05-25T08:34:58.247Z,1009.37
2019-05-25T08:35:58.241Z,1009.34
2019-05-25T08:36:58.235Z,1009.36
2019-05-25T08:37:58.220Z,1009.37
2019-05-25T08:38:58.194Z,1009.42
2019-05-25T08:39:58.183Z,1009.39
2019-05-25T08:40:58.202Z,1009.40
2019-05-25T08:41:58.167Z,1009.35
2019-05-25T08:42:58.161Z,1009.41
2019-05-25T08:43:58.146Z,1009.41
2019-05-25T08:44:58.133Z,1009.35
2019-05-25T08:45:58.131Z,1009.39
2019-05-25T08:46:58.115Z,1009.42
2019-05-25T08:47:58.118Z,1009.41
2019-05-25T08:48:58.085Z,1009.43
2019-05-25T08:49:58.066Z,1009.43
2019-05-25T08:50:59.709Z,1009.42
2019-05-25T08:51:58.059Z,1009.36
2019-05-25T08:52:58.104Z,1009.35
2019-05-25T08:53:58.031Z,1009.41
2019-05-25T08:54:58.021Z,1009.41
2019-05-25T08:55:58.011Z,1009.46
2019-05-25T08:56:58.003Z,1009.46
2019-05-25T08:57:57.979Z,1009.48
2019-05-25T08:58:57.977Z,1009.43
2019-05-25T08:59:57.968Z,1009.45
2019-05-25T09:00:57.947Z,1009.44
2019-05-25T09:01:57.948Z,1009.48
2019-05-25T09:02:57.938Z,1009.47
2019-05-25T09:03:57.913Z,1009.51
2019-05-25T09:04:57.912Z,1009.46
2019-05-25T09:05:57.909Z,1009.53
2019-05-25T09:06:57.884Z,1009.51
2019-05-25T09:07:57.868Z,1009.50
2019-05-25T09:08:57.861Z,1009.47
2019-05-25T09:09:57.839Z,1009.55
2019-05-25T09:10:57.833Z,1009.46
2019-05-25T09:11:57.823Z,1009.54
2019-05-25T09:12:57.811Z,1009.50
2019-05-25T09:13:57.803Z,1009.52
2019-05-25T09:14:57.789Z,1009.49
2019-05-25T09:15:57.785Z,1009.44
2019-05-25T09:16:57.776Z,1009.53
2019-05-25T09:17:57.756Z,1009.51
2019-05-25T09:18:57.747Z,1009.60
2019-05-25T09:19:57.731Z,1009.49
2019-05-25T09:20:57.728Z,1009.58
2019-05-25T09:22:02.383Z,1009.59
2019-05-25T09:22:58.696Z,1009.54
2019-05-25T09:23:57.687Z,1009.57
2019-05-25T09:24:57.675Z,1009.50
2019-05-25T09:25:57.690Z,1009.54
2019-05-25T09:26:57.655Z,1009.52
2019-05-25T09:27:57.656Z,1009.56
2019-05-25T09:29:04.582Z,1009.65
2019-05-25T09:29:58.624Z,1009.56
2019-05-25T09:30:57.629Z,1009.56
2019-05-25T09:31:57.615Z,1009.57
2019-05-25T09:32:57.582Z,1009.62
2019-05-25T09:33:57.574Z,1009.58
2019-05-25T09:34:57.588Z,1009.60
2019-05-25T09:35:57.558Z,1009.61
2019-05-25T09:36:57.554Z,1009.69
2019-05-25T09:37:57.537Z,1009.67
2019-05-25T09:38:57.526Z,1009.69
2019-05-25T09:39:57.503Z,1009.66
2019-05-25T09:40:57.496Z,1009.69
2019-05-25T09:41:57.496Z,1009.69
2019-05-25T09:42:57.533Z,1009.73
2019-05-25T09:43:57.537Z,1009.64
2019-05-25T09:44:57.454Z,1009.66
2019-05-25T09:45:57.451Z,1009.66
2019-05-25T09:46:57.434Z,1009.64
2019-05-25T09:47:57.490Z,1009.67
2019-05-25T09:48:57.409Z,1009.67
2019-05-25T09:49:57.406Z,1009.67
2019-05-25T09:50:57.408Z,1009.71
2019-05-25T09:51:57.377Z,1009.61
2019-05-25T09:52:57.378Z,1009.65
2019-05-25T09:53:57.370Z,1009.67
2019-05-25T09:54:57.345Z,1009.66
2019-05-25T09:55:57.337Z,1009.62
2019-05-25T09:56:57.324Z,1009.73
2019-05-25T09:57:57.309Z,1009.72
2019-05-25T09:58:57.306Z,1009.73
2019-05-25T09:59:57.285Z,1009.69
2019-05-25T10:00:57.314Z,1009.70
2019-05-25T10:01:57.266Z,1009.68
2019-05-25T10:02:57.251Z,1009.64
2019-05-25T10:03:57.265Z,1009.66
2019-05-25T10:04:57.240Z,1009.69
2019-05-25T10:05:57.222Z,1009.71
2019-05-25T10:06:57.225Z,1009.69
2019-05-25T10:07:57.209Z,1009.62
2019-05-25T10:08:57.209Z,1009.64
2019-05-25T10:09:57.185Z,1009.66
2019-05-25T10:10:57.176Z,1009.66
2019-05-25T10:11:57.152Z,1009.60
2019-05-25T10:12:57.144Z,1009.65
2019-05-25T10:13:57.171Z,1009.63
2019-05-25T10:14:57.120Z,1009.66
2019-05-25T10:15:57.121Z,1009.66
2019-05-25T10:16:57.096Z,1009.55
2019-05-25T10:17:57.095Z,1009.57
2019-05-25T10:18:57.100Z,1009.59
2019-05-25T10:19:57.068Z,1009.56
2019-05-25T10:20:57.054Z,1009.51
2019-05-25T10:21:59.396Z,1009.52
2019-05-25T10:22:57.029Z,1009.52
2019-05-25T10:23:57.036Z,1009.49
2019-05-25T10:24:57.018Z,1009.50
2019-05-25T10:25:57.001Z,1009.40
2019-05-25T10:26:56.989Z,1009.53
2019-05-25T10:27:56.995Z,1009.52
2019-05-25T10:28:56.982Z,1009.54
2019-05-25T10:29:56.992Z,1009.48
2019-05-25T10:30:56.970Z,1009.53
2019-05-25T10:31:56.939Z,1009.50
2019-05-25T10:32:56.980Z,1009.52
2019-05-25T10:33:56.921Z,1009.55
2019-05-25T10:34:56.942Z,1009.57
2019-05-25T10:35:56.924Z,1009.53
2019-05-25T10:36:56.902Z,1009.54
2019-05-25T10:37:56.870Z,1009.56
2019-05-25T10:38:56.844Z,1009.60
2019-05-25T10:39:56.845Z,1009.47
2019-05-25T10:40:58.584Z,1009.56
2019-05-25T10:41:56.821Z,1009.52
2019-05-25T10:42:56.802Z,1009.53
2019-05-25T10:43:56.796Z,1009.51
2019-05-25T10:44:56.800Z,1009.61
2019-05-25T10:45:56.826Z,1009.49
2019-05-25T10:46:56.764Z,1009.55
2019-05-25T10:47:56.748Z,1009.52
2019-05-25T10:48:56.756Z,1009.57
2019-05-25T10:49:56.730Z,1009.54
2019-05-25T10:50:56.722Z,1009.55
2019-05-25T10:51:56.716Z,1009.54
2019-05-25T10:52:56.712Z,1009.56
2019-05-25T10:53:56.682Z,1009.53
2019-05-25T10:54:56.668Z,1009.58
2019-05-25T10:55:56.659Z,1009.56
2019-05-25T10:56:56.654Z,1009.50
2019-05-25T10:57:56.640Z,1009.55
2019-05-25T10:58:56.893Z,1009.59
2019-05-25T10:59:56.617Z,1009.49
2019-05-25T11:00:56.606Z,1009.46
2019-05-25T11:01:56.589Z,1009.51
2019-05-25T11:02:56.586Z,1009.57
2019-05-25T11:03:56.602Z,1009.50
2019-05-25T11:04:56.560Z,1009.51
2019-05-25T11:05:56.667Z,1009.58
2019-05-25T11:06:56.536Z,1009.59
2019-05-25T11:07:56.533Z,1009.56
2019-05-25T11:08:56.527Z,1009.51
2019-05-25T11:09:56.512Z,1009.45
2019-05-25T11:10:56.499Z,1009.45
2019-05-25T11:11:56.485Z,1009.50
2019-05-25T11:12:56.487Z,1009.58
2019-05-25T11:13:56.478Z,1009.49
2019-05-25T11:14:56.453Z,1009.56
2019-05-25T11:15:56.424Z,1009.64
2019-05-25T11:16:56.426Z,1009.46
2019-05-25T11:17:56.407Z,1009.59
2019-05-25T11:18:56.406Z,1009.55
2019-05-25T11:19:56.412Z,1009.54
2019-05-25T11:20:56.393Z,1009.52
2019-05-25T11:21:56.370Z,1009.46
2019-05-25T11:22:56.355Z,1009.53
2019-05-25T11:23:56.336Z,1009.50
2019-05-25T11:24:56.330Z,1009.53
2019-05-25T11:25:56.346Z,1009.56
2019-05-25T11:26:59.583Z,1009.48
2019-05-25T11:27:56.296Z,1009.49
2019-05-25T11:28:56.286Z,1009.44
2019-05-25T11:30:08.444Z,1009.58
2019-05-25T11:30:57.280Z,1009.57
2019-05-25T11:31:59.919Z,1009.51
2019-05-25T11:32:57.237Z,1009.51
2019-05-25T11:33:56.239Z,1009.55
2019-05-25T11:34:56.228Z,1009.55
2019-05-25T11:35:56.213Z,1009.53
2019-05-25T11:36:56.225Z,1009.52
2019-05-25T11:37:56.234Z,1009.42
2019-05-25T11:38:56.736Z,1009.46
2019-05-25T11:39:56.293Z,1009.48
2019-05-25T11:40:57.087Z,1009.46
2019-05-25T11:41:57.075Z,1009.45
2019-05-25T11:42:56.419Z,1009.51
2019-05-25T11:43:56.656Z,1009.56
2019-05-25T11:44:57.086Z,1009.49
2019-05-25T11:45:57.789Z,1009.57
2019-05-25T11:46:56.904Z,1009.49
2019-05-25T11:47:56.074Z,1009.49
2019-05-25T11:48:57.226Z,1009.49
2019-05-25T11:49:56.040Z,1009.53
2019-05-25T11:50:56.036Z,1009.54
2019-05-25T11:51:56.019Z,1009.50
2019-05-25T11:52:56.018Z,1009.49
2019-05-25T11:53:55.999Z,1009.51
2019-05-25T11:54:56.057Z,1009.53
2019-05-25T11:55:55.979Z,1009.50
2019-05-25T11:56:55.967Z,1009.49
2019-05-25T11:57:55.961Z,1009.54
2019-05-25T11:58:55.966Z,1009.50
2019-05-25T11:59:55.969Z,1009.55
2019-05-25T12:00:55.946Z,1009.54
2019-05-25T12:01:55.918Z,1009.50
2019-05-25T12:02:55.909Z,1009.55
2019-05-25T12:03:55.895Z,1009.51
2019-05-25T12:04:55.881Z,1009.53
2019-05-25T12:05:55.864Z,1009.53